Pagrindinis puslapis
METAR-TAF:

METAR-TAF

Oro uostai :

Teheranas, Iranas

platuma: 35-41N, ilguma: 051-21E, Aukštis: 1204 m

Dabartinis oras

Ataskaita buvo paskelbta 15 minutes, ne 22:00 UTC
Vėjas 6 kt iš Šiaurės/Šiaurės Vakarų
Temperatūra 29°C
Drėgmė 13%
Slėgis 1015 hPa
Matomumas 10 km arba daugiau
nėra debesų žemiau 1500 m ir nėra kamuolinių lietaus debesų

METAR: OIII 202200Z 34006KT CAVOK 29/M02 Q1014 A2996 NOSIG

Laikas: 02:45 (22:15 UTC)

Prognozė

Ataskaita buvo paskelbta 4 valandos ir 25 minutes, ne 17:50 UTC
Prognozė galioja nuo 20 metu 18 UTC su 21 metu 24 UTC
Vėjas 8 kt iš Šiaurės Vakarų
Matomumas: 8000 m
Laikinai
nuo 21 metu 07 UTC su 21 metu 14 UTC
Vėjas 14 kt iš Pietų/Pietvakarių

TAF: OIII 201750Z 2018/2124 32008KT 8000 NSC TEMPO 2107/2114 20014KT

Orai ataskaitas ir orų prognozės (METAR, TAF).

turimą stotys yra geltonos ir raudonos taškus žemėlapyje.

Perkelti pele per norėdami pamatyti stoties vardą.

Tada spustelėkite, norėdami matyti oro stebėjimo ir prognozės.

Norėdami pakeisti žemėlapį: spustelėkite ant žalios mygtukų su juodo kryžiaus žemyn,; žalią mygtuką su brūkšneliu, jei norite nutolinti; arba žalių rodyklių gretimoms žemėlapius.


METAR-TAF: